createdAt,value
2022-11-30T00:00:08.959Z,10.80
2022-11-30T00:01:08.944Z,10.20
2022-11-30T00:02:09.048Z,10.10
2022-11-30T00:03:09.108Z,10.10
2022-11-30T00:04:08.929Z,10.90
2022-11-30T00:05:08.870Z,10.30
2022-11-30T00:06:08.883Z,9.00
2022-11-30T00:07:08.850Z,8.60
2022-11-30T00:08:08.841Z,10.30
2022-11-30T00:09:08.830Z,9.40
2022-11-30T00:10:08.876Z,10.00
2022-11-30T00:11:08.807Z,8.10
2022-11-30T00:12:08.824Z,8.30
2022-11-30T00:13:08.805Z,10.20
2022-11-30T00:14:08.781Z,10.30
2022-11-30T00:15:08.806Z,11.50
2022-11-30T00:16:08.786Z,10.70
2022-11-30T00:17:08.823Z,10.90
2022-11-30T00:18:08.758Z,10.00
2022-11-30T00:19:08.740Z,11.40
2022-11-30T00:20:08.708Z,8.80
2022-11-30T00:21:08.886Z,8.60
2022-11-30T00:22:08.720Z,9.40
2022-11-30T00:23:08.686Z,9.10
2022-11-30T00:24:08.671Z,8.30
2022-11-30T00:25:08.666Z,9.60
2022-11-30T00:26:08.658Z,10.30
2022-11-30T00:27:08.654Z,9.90
2022-11-30T00:28:08.630Z,12.10
2022-11-30T00:29:08.616Z,10.60
2022-11-30T00:30:08.606Z,10.20
2022-11-30T00:31:08.675Z,10.30
2022-11-30T00:32:08.617Z,9.10
2022-11-30T00:33:08.585Z,10.40
2022-11-30T00:34:08.622Z,9.40
2022-11-30T00:35:08.554Z,8.40
2022-11-30T00:36:08.536Z,10.20
2022-11-30T00:37:08.540Z,10.20
2022-11-30T00:38:08.558Z,11.90
2022-11-30T00:39:08.535Z,10.30
2022-11-30T00:40:08.495Z,8.60
2022-11-30T00:41:08.508Z,9.20
2022-11-30T00:42:08.472Z,9.00
2022-11-30T00:43:08.490Z,8.70
2022-11-30T00:44:08.478Z,9.20
2022-11-30T00:45:08.465Z,10.20
2022-11-30T00:46:08.475Z,10.80
2022-11-30T00:47:08.447Z,9.30
2022-11-30T00:48:08.431Z,11.00
2022-11-30T00:49:08.393Z,10.50
2022-11-30T00:50:08.416Z,10.10
2022-11-30T00:51:08.374Z,11.20
2022-11-30T00:52:08.376Z,10.10
2022-11-30T00:53:08.369Z,9.50
2022-11-30T00:54:08.362Z,10.40
2022-11-30T00:55:08.331Z,11.00
2022-11-30T00:56:08.350Z,11.50
2022-11-30T00:57:08.325Z,10.40
2022-11-30T00:58:08.307Z,10.10
2022-11-30T00:59:08.300Z,10.60
2022-11-30T01:00:08.287Z,10.40
2022-11-30T01:01:08.357Z,10.30
2022-11-30T01:02:08.374Z,10.50
2022-11-30T01:03:08.265Z,10.40
2022-11-30T01:04:08.230Z,11.60
2022-11-30T01:05:08.253Z,11.30
2022-11-30T01:06:08.249Z,10.30
2022-11-30T01:07:08.196Z,12.60
2022-11-30T01:08:08.228Z,10.40
2022-11-30T01:09:08.178Z,9.90
2022-11-30T01:10:08.182Z,11.20
2022-11-30T01:11:08.195Z,10.00
2022-11-30T01:12:08.153Z,10.80
2022-11-30T01:13:08.152Z,9.60
2022-11-30T01:14:08.149Z,10.20
2022-11-30T01:15:08.137Z,10.80
2022-11-30T01:16:08.145Z,10.50
2022-11-30T01:17:08.108Z,10.90
2022-11-30T01:18:08.121Z,11.20
2022-11-30T01:19:08.091Z,10.60
2022-11-30T01:20:08.073Z,11.80
2022-11-30T01:21:08.064Z,11.00
2022-11-30T01:22:08.076Z,10.60
2022-11-30T01:23:08.052Z,12.40
2022-11-30T01:24:08.041Z,11.10
2022-11-30T01:25:08.017Z,12.20
2022-11-30T01:26:07.998Z,12.30
2022-11-30T01:27:07.995Z,12.40
2022-11-30T01:28:07.972Z,12.30
2022-11-30T01:29:07.990Z,12.00
2022-11-30T01:30:07.975Z,11.70
2022-11-30T01:31:08.069Z,10.30
2022-11-30T01:32:07.940Z,10.40
2022-11-30T01:33:07.947Z,10.80
2022-11-30T01:34:07.923Z,11.40
2022-11-30T01:35:07.909Z,10.00
2022-11-30T01:36:07.886Z,12.00
2022-11-30T01:37:07.874Z,12.10
2022-11-30T01:38:07.903Z,12.30
2022-11-30T01:39:07.870Z,12.30
2022-11-30T01:40:07.920Z,12.90
2022-11-30T01:41:07.828Z,12.60
2022-11-30T01:42:07.821Z,11.50
2022-11-30T01:43:07.827Z,11.20
2022-11-30T01:44:07.828Z,10.30
2022-11-30T01:45:07.823Z,10.40
2022-11-30T01:46:07.807Z,10.50
2022-11-30T01:47:07.781Z,11.80
2022-11-30T01:48:07.769Z,11.50
2022-11-30T01:49:07.757Z,12.20
2022-11-30T01:50:07.742Z,13.10
2022-11-30T01:51:07.741Z,13.60
2022-11-30T01:52:07.747Z,11.90
2022-11-30T01:53:07.718Z,10.80
2022-11-30T01:54:07.715Z,10.90
2022-11-30T01:55:07.678Z,11.30
2022-11-30T01:56:07.673Z,11.90
2022-11-30T01:57:07.707Z,10.40
2022-11-30T01:58:07.671Z,12.90
2022-11-30T01:59:07.697Z,14.50
2022-11-30T02:00:07.632Z,13.00
2022-11-30T02:01:07.688Z,12.10
2022-11-30T02:02:07.662Z,13.30
2022-11-30T02:03:07.619Z,14.50
2022-11-30T02:04:07.608Z,11.20
2022-11-30T02:05:07.570Z,12.10
2022-11-30T02:06:07.569Z,12.50
2022-11-30T02:07:07.684Z,12.40
2022-11-30T02:08:07.712Z,11.40
2022-11-30T02:09:07.547Z,11.90
2022-11-30T02:10:07.555Z,14.50
2022-11-30T02:11:07.511Z,15.50
2022-11-30T02:12:07.492Z,14.60
2022-11-30T02:13:07.506Z,14.20
2022-11-30T02:14:07.499Z,15.50
2022-11-30T02:15:07.479Z,15.00
2022-11-30T02:16:07.512Z,14.00
2022-11-30T02:17:07.435Z,12.80
2022-11-30T02:18:07.430Z,14.20
2022-11-30T02:19:07.461Z,13.80
2022-11-30T02:20:07.419Z,12.30
2022-11-30T02:21:07.394Z,12.40
2022-11-30T02:22:07.402Z,13.70
2022-11-30T02:23:07.435Z,14.80
2022-11-30T02:24:07.371Z,15.60
2022-11-30T02:25:07.347Z,14.30
2022-11-30T02:26:07.370Z,15.80
2022-11-30T02:27:07.370Z,15.20
2022-11-30T02:28:07.333Z,13.40
2022-11-30T02:29:07.342Z,12.20
2022-11-30T02:30:07.309Z,14.00
2022-11-30T02:31:07.349Z,12.40
2022-11-30T02:32:07.298Z,11.80
2022-11-30T02:33:07.306Z,13.50
2022-11-30T02:34:07.256Z,13.90
2022-11-30T02:35:07.240Z,13.70
2022-11-30T02:36:07.237Z,13.20
2022-11-30T02:37:07.223Z,15.30
2022-11-30T02:38:07.224Z,14.30
2022-11-30T02:39:07.236Z,17.50
2022-11-30T02:40:07.204Z,16.20
2022-11-30T02:41:07.188Z,15.60
2022-11-30T02:42:07.210Z,14.40
2022-11-30T02:43:07.167Z,14.10
2022-11-30T02:44:07.143Z,13.00
2022-11-30T02:45:07.125Z,14.30
2022-11-30T02:46:07.197Z,14.00
2022-11-30T02:47:07.131Z,13.60
2022-11-30T02:48:07.106Z,13.70
2022-11-30T02:49:07.124Z,17.60
2022-11-30T02:50:07.086Z,16.20
2022-11-30T02:51:07.088Z,16.80
2022-11-30T02:52:07.105Z,16.40
2022-11-30T02:53:07.067Z,17.30
2022-11-30T02:54:07.035Z,14.70
2022-11-30T02:55:07.030Z,15.20
2022-11-30T02:56:07.008Z,13.60
2022-11-30T02:57:07.024Z,12.90
2022-11-30T02:58:07.029Z,16.80
2022-11-30T02:59:06.994Z,16.40
2022-11-30T03:00:06.987Z,16.60
2022-11-30T03:01:07.061Z,17.70
2022-11-30T03:02:06.946Z,17.90
2022-11-30T03:03:07.057Z,16.00
2022-11-30T03:04:06.935Z,16.10
2022-11-30T03:05:06.999Z,15.00
2022-11-30T03:06:06.899Z,16.70
2022-11-30T03:07:06.919Z,17.80
2022-11-30T03:08:06.882Z,16.50
2022-11-30T03:09:06.895Z,16.70
2022-11-30T03:10:06.868Z,15.90
2022-11-30T03:11:06.849Z,17.90
2022-11-30T03:12:06.831Z,15.90
2022-11-30T03:13:06.872Z,15.50
2022-11-30T03:14:06.851Z,14.80
2022-11-30T03:15:06.805Z,15.20
2022-11-30T03:16:06.957Z,14.80
2022-11-30T03:17:06.780Z,14.90
2022-11-30T03:18:06.780Z,14.50
2022-11-30T03:19:06.771Z,13.70
2022-11-30T03:20:06.761Z,13.30
2022-11-30T03:21:06.739Z,16.70
2022-11-30T03:22:06.747Z,17.40
2022-11-30T03:23:06.729Z,16.90
2022-11-30T03:24:06.731Z,16.50
2022-11-30T03:25:06.705Z,17.40
2022-11-30T03:26:06.694Z,17.30
2022-11-30T03:27:06.669Z,17.50
2022-11-30T03:28:06.669Z,14.40
2022-11-30T03:29:06.661Z,16.20
2022-11-30T03:30:06.659Z,17.10
2022-11-30T03:31:06.671Z,15.00
2022-11-30T03:32:06.622Z,12.20
2022-11-30T03:33:06.682Z,14.30
2022-11-30T03:34:06.592Z,12.60
2022-11-30T03:35:06.580Z,13.10
2022-11-30T03:36:06.592Z,14.60
2022-11-30T03:37:06.577Z,15.90
2022-11-30T03:38:06.557Z,15.90
2022-11-30T03:39:06.568Z,15.50
2022-11-30T03:40:06.534Z,16.80
2022-11-30T03:41:06.537Z,15.80
2022-11-30T03:42:06.510Z,15.60
2022-11-30T03:43:06.509Z,15.30
2022-11-30T03:44:06.500Z,16.40
2022-11-30T03:45:06.488Z,15.40
2022-11-30T03:46:06.573Z,15.80
2022-11-30T03:47:06.469Z,17.00
2022-11-30T03:48:06.491Z,14.90
2022-11-30T03:49:06.454Z,14.30
2022-11-30T03:50:06.462Z,14.60
2022-11-30T03:51:06.416Z,14.60
2022-11-30T03:52:06.414Z,15.50
2022-11-30T03:53:06.433Z,15.60
2022-11-30T03:54:06.390Z,14.90
2022-11-30T03:55:06.374Z,14.80
2022-11-30T03:56:06.395Z,14.30
2022-11-30T03:57:06.381Z,15.00
2022-11-30T03:58:06.361Z,15.10
2022-11-30T03:59:06.343Z,14.90
2022-11-30T04:00:06.335Z,12.70
2022-11-30T04:01:06.320Z,14.10
2022-11-30T04:02:06.348Z,14.10
2022-11-30T04:03:06.385Z,13.20
2022-11-30T04:04:06.276Z,11.90
2022-11-30T04:05:06.266Z,14.10
2022-11-30T04:06:06.256Z,12.70
2022-11-30T04:07:06.236Z,14.10
2022-11-30T04:08:06.238Z,14.10
2022-11-30T04:09:06.236Z,14.90
2022-11-30T04:10:08.599Z,14.20
2022-11-30T04:11:06.193Z,15.30
2022-11-30T04:12:06.180Z,15.40
2022-11-30T04:13:06.170Z,15.20
2022-11-30T04:14:06.177Z,16.00
2022-11-30T04:15:06.148Z,15.40
2022-11-30T04:16:06.189Z,14.30
2022-11-30T04:17:06.138Z,14.40
2022-11-30T04:18:06.155Z,13.90
2022-11-30T04:19:06.127Z,13.10
2022-11-30T04:20:06.108Z,14.40
2022-11-30T04:21:06.101Z,14.20
2022-11-30T04:22:06.103Z,14.80
2022-11-30T04:23:06.093Z,14.00
2022-11-30T04:24:06.057Z,14.10
2022-11-30T04:25:06.048Z,14.30
2022-11-30T04:26:06.042Z,13.50
2022-11-30T04:27:06.040Z,15.00
2022-11-30T04:28:06.019Z,12.80
2022-11-30T04:29:06.010Z,14.60
2022-11-30T04:30:05.988Z,13.50
2022-11-30T04:31:06.066Z,14.30
2022-11-30T04:32:05.983Z,13.60
2022-11-30T04:33:05.990Z,13.50
2022-11-30T04:34:05.966Z,13.90
2022-11-30T04:35:05.959Z,13.50
2022-11-30T04:36:05.921Z,14.10
2022-11-30T04:37:05.906Z,13.60
2022-11-30T04:38:05.909Z,13.60
2022-11-30T04:39:05.883Z,13.40
2022-11-30T04:40:05.898Z,13.10
2022-11-30T04:41:05.891Z,14.60
2022-11-30T04:42:05.877Z,12.90
2022-11-30T04:43:05.845Z,14.30
2022-11-30T04:44:05.848Z,13.10
2022-11-30T04:45:05.832Z,13.60
2022-11-30T04:46:05.813Z,14.60
2022-11-30T04:47:05.803Z,13.60
2022-11-30T04:48:05.803Z,13.60
2022-11-30T04:49:05.808Z,14.90
2022-11-30T04:50:05.793Z,12.70
2022-11-30T04:51:05.766Z,13.50
2022-11-30T04:52:05.766Z,13.10
2022-11-30T04:53:05.741Z,12.30
2022-11-30T04:54:05.720Z,12.70
2022-11-30T04:55:05.708Z,12.90
2022-11-30T04:56:05.730Z,12.50
2022-11-30T04:57:05.691Z,13.90
2022-11-30T04:58:05.687Z,13.60
2022-11-30T04:59:05.666Z,12.00
2022-11-30T05:00:05.665Z,13.90
2022-11-30T05:01:05.659Z,12.90
2022-11-30T05:02:05.690Z,12.60
2022-11-30T05:03:05.624Z,12.70
2022-11-30T05:04:05.680Z,12.90
2022-11-30T05:05:05.617Z,12.50
2022-11-30T05:06:05.624Z,13.20
2022-11-30T05:07:05.575Z,12.40
2022-11-30T05:08:05.662Z,11.70
2022-11-30T05:09:05.550Z,12.60
2022-11-30T05:10:05.540Z,13.20
2022-11-30T05:11:05.567Z,10.80
2022-11-30T05:12:05.545Z,11.40
2022-11-30T05:13:05.516Z,12.50
2022-11-30T05:14:05.519Z,12.50
2022-11-30T05:15:05.513Z,11.80
2022-11-30T05:16:05.575Z,12.10
2022-11-30T05:17:05.470Z,11.30
2022-11-30T05:18:05.490Z,11.90
2022-11-30T05:19:05.445Z,12.00
2022-11-30T05:20:05.438Z,11.70
2022-11-30T05:21:05.454Z,12.10
2022-11-30T05:22:05.460Z,12.10
2022-11-30T05:23:05.416Z,12.30
2022-11-30T05:24:05.438Z,11.90
2022-11-30T05:25:05.382Z,12.50
2022-11-30T05:26:05.389Z,11.40
2022-11-30T05:27:10.985Z,11.10
2022-11-30T05:28:06.354Z,11.20
2022-11-30T05:29:05.352Z,11.10
2022-11-30T05:30:05.368Z,11.50
2022-11-30T05:31:05.443Z,12.30
2022-11-30T05:32:05.301Z,11.40
2022-11-30T05:33:05.328Z,10.10
2022-11-30T05:34:05.302Z,9.90
2022-11-30T05:35:05.289Z,9.00
2022-11-30T05:36:10.434Z,10.40
2022-11-30T05:37:06.280Z,9.70
2022-11-30T05:38:05.309Z,10.30
2022-11-30T05:39:05.249Z,11.50
2022-11-30T05:40:05.240Z,12.20
2022-11-30T05:41:05.229Z,11.50
2022-11-30T05:42:05.214Z,12.30
2022-11-30T05:43:05.184Z,10.80
2022-11-30T05:44:05.185Z,11.80
2022-11-30T05:45:05.180Z,9.60
2022-11-30T05:46:05.169Z,10.70
2022-11-30T05:47:05.264Z,10.00
2022-11-30T05:48:05.138Z,8.70
2022-11-30T05:49:05.132Z,10.10
2022-11-30T05:50:05.153Z,10.80
2022-11-30T05:51:05.132Z,11.20
2022-11-30T05:52:05.103Z,12.30
2022-11-30T05:53:05.084Z,11.80
2022-11-30T05:54:05.105Z,11.70
2022-11-30T05:55:05.076Z,11.70
2022-11-30T05:56:05.080Z,11.90
2022-11-30T05:57:05.085Z,10.70
2022-11-30T05:58:05.044Z,11.30
2022-11-30T05:59:05.019Z,12.50
2022-11-30T06:00:05.018Z,11.80
2022-11-30T06:01:05.025Z,9.80
2022-11-30T06:02:05.076Z,11.70
2022-11-30T06:03:05.217Z,10.60
2022-11-30T06:04:08.804Z,11.50
2022-11-30T06:05:04.942Z,12.10
2022-11-30T06:06:04.958Z,13.00
2022-11-30T06:07:04.937Z,12.90
2022-11-30T06:08:04.923Z,13.00
2022-11-30T06:09:04.937Z,12.30
2022-11-30T06:10:04.932Z,12.50
2022-11-30T06:11:04.921Z,12.60
2022-11-30T06:12:04.895Z,11.50
2022-11-30T06:13:04.880Z,11.70
2022-11-30T06:14:04.892Z,11.80
2022-11-30T06:15:04.994Z,11.40
2022-11-30T06:16:04.925Z,13.10
2022-11-30T06:17:04.831Z,12.60
2022-11-30T06:18:04.810Z,13.70
2022-11-30T06:19:04.791Z,13.30
2022-11-30T06:20:04.817Z,13.40
2022-11-30T06:21:04.795Z,13.80
2022-11-30T06:22:04.762Z,12.20
2022-11-30T06:23:04.752Z,11.50
2022-11-30T06:24:04.741Z,11.80
2022-11-30T06:25:04.807Z,12.20
2022-11-30T06:26:04.776Z,13.50
2022-11-30T06:27:04.719Z,14.30
2022-11-30T06:28:04.712Z,14.20
2022-11-30T06:29:04.679Z,14.10
2022-11-30T06:30:04.704Z,14.30
2022-11-30T06:31:04.681Z,14.20
2022-11-30T06:32:04.718Z,14.00
2022-11-30T06:33:04.638Z,13.30
2022-11-30T06:34:04.658Z,14.40
2022-11-30T06:35:04.636Z,14.30
2022-11-30T06:36:04.630Z,12.10
2022-11-30T06:37:04.628Z,11.70
2022-11-30T06:38:04.585Z,12.70
2022-11-30T06:39:04.600Z,13.40
2022-11-30T06:40:07.363Z,12.20
2022-11-30T06:41:04.555Z,13.20
2022-11-30T06:42:04.580Z,13.50
2022-11-30T06:43:04.538Z,13.90
2022-11-30T06:44:04.531Z,13.60
2022-11-30T06:45:04.542Z,12.20
2022-11-30T06:46:04.598Z,13.20
2022-11-30T06:47:04.492Z,12.40
2022-11-30T06:48:04.511Z,12.00
2022-11-30T06:49:04.502Z,12.10
2022-11-30T06:50:04.614Z,13.70
2022-11-30T06:51:04.442Z,14.70
2022-11-30T06:52:04.427Z,14.00
2022-11-30T06:53:04.443Z,15.00
2022-11-30T06:54:04.444Z,13.70
2022-11-30T06:55:04.417Z,14.20
2022-11-30T06:56:09.668Z,15.10
2022-11-30T06:57:05.393Z,14.70
2022-11-30T06:58:05.012Z,13.90
2022-11-30T06:59:04.391Z,12.70
2022-11-30T07:00:04.352Z,11.60
2022-11-30T07:01:04.394Z,11.70
2022-11-30T07:02:09.723Z,11.80
2022-11-30T07:03:05.344Z,14.70
2022-11-30T07:04:04.464Z,14.00
2022-11-30T07:05:04.304Z,15.90
2022-11-30T07:06:04.302Z,14.60
2022-11-30T07:07:04.304Z,14.10
2022-11-30T07:08:04.505Z,15.40
2022-11-30T07:09:04.274Z,13.30
2022-11-30T07:10:04.245Z,12.80
2022-11-30T07:11:04.310Z,12.20
2022-11-30T07:12:04.243Z,11.60
2022-11-30T07:13:04.223Z,13.40
2022-11-30T07:14:04.285Z,15.30
2022-11-30T07:15:04.183Z,15.30
2022-11-30T07:16:04.243Z,14.30
2022-11-30T07:17:04.179Z,14.30
2022-11-30T07:18:04.161Z,11.80
2022-11-30T07:19:04.149Z,12.80
2022-11-30T07:20:04.177Z,11.60
2022-11-30T07:21:04.141Z,12.60
2022-11-30T07:22:04.128Z,14.30
2022-11-30T07:23:04.177Z,15.00
2022-11-30T07:24:04.088Z,14.40
2022-11-30T07:25:04.122Z,14.20
2022-11-30T07:26:04.092Z,15.00
2022-11-30T07:27:04.092Z,15.20
2022-11-30T07:28:04.073Z,15.80
2022-11-30T07:29:04.032Z,14.60
2022-11-30T07:30:04.064Z,15.30
2022-11-30T07:31:05.103Z,15.40
2022-11-30T07:32:04.059Z,15.50
2022-11-30T07:33:04.000Z,13.20
2022-11-30T07:34:03.998Z,13.10
2022-11-30T07:35:03.996Z,14.50
2022-11-30T07:36:03.964Z,13.20
2022-11-30T07:37:03.943Z,14.00
2022-11-30T07:38:09.481Z,15.00
2022-11-30T07:39:04.927Z,15.80
2022-11-30T07:40:04.905Z,17.10
2022-11-30T07:41:03.900Z,15.50
2022-11-30T07:42:03.883Z,15.70
2022-11-30T07:43:03.894Z,16.50
2022-11-30T07:44:03.963Z,16.30
2022-11-30T07:45:03.868Z,16.50
2022-11-30T07:46:03.940Z,15.10
2022-11-30T07:47:03.867Z,14.60
2022-11-30T07:48:03.833Z,15.10
2022-11-30T07:49:03.855Z,14.70
2022-11-30T07:50:03.862Z,14.60
2022-11-30T07:51:03.809Z,18.60
2022-11-30T07:52:03.799Z,17.10
2022-11-30T07:53:03.790Z,17.80
2022-11-30T07:54:03.779Z,16.90
2022-11-30T07:55:03.789Z,17.00
2022-11-30T07:56:03.770Z,17.30
2022-11-30T07:57:03.787Z,17.20
2022-11-30T07:58:03.756Z,18.50
2022-11-30T07:59:03.722Z,16.70
2022-11-30T08:00:03.705Z,18.80
2022-11-30T08:01:03.969Z,17.80
2022-11-30T08:02:03.877Z,15.60
2022-11-30T08:03:03.701Z,15.00
2022-11-30T08:04:03.668Z,15.40
2022-11-30T08:05:03.703Z,16.20
2022-11-30T08:06:03.649Z,17.10
2022-11-30T08:07:03.621Z,17.30
2022-11-30T08:08:03.689Z,18.60
2022-11-30T08:09:03.616Z,18.20
2022-11-30T08:10:03.584Z,14.80
2022-11-30T08:11:03.959Z,17.00
2022-11-30T08:12:03.601Z,15.40
2022-11-30T08:13:03.573Z,16.10
2022-11-30T08:14:03.554Z,14.60
2022-11-30T08:15:20.762Z,14.50
2022-11-30T08:16:04.516Z,19.20
2022-11-30T08:17:03.641Z,19.80
2022-11-30T08:18:03.558Z,19.30
2022-11-30T08:19:03.926Z,19.50
2022-11-30T08:20:03.504Z,17.40
2022-11-30T08:21:03.468Z,17.50
2022-11-30T08:22:03.503Z,18.20
2022-11-30T08:23:03.514Z,18.70
2022-11-30T08:24:03.514Z,17.60
2022-11-30T08:25:03.424Z,17.30
2022-11-30T08:26:03.419Z,18.10
2022-11-30T08:27:03.413Z,19.60
2022-11-30T08:28:03.416Z,18.60
2022-11-30T08:29:03.386Z,20.40
2022-11-30T08:30:03.366Z,19.80
2022-11-30T08:31:03.448Z,16.40
2022-11-30T08:32:03.358Z,17.60
2022-11-30T08:33:03.338Z,18.30
2022-11-30T08:34:03.526Z,16.40
2022-11-30T08:35:03.339Z,15.60
2022-11-30T08:36:03.307Z,18.60
2022-11-30T08:37:03.310Z,17.00
2022-11-30T08:38:03.335Z,15.30
2022-11-30T08:39:03.261Z,15.50
2022-11-30T08:40:03.400Z,15.50
2022-11-30T08:41:03.264Z,16.30
2022-11-30T08:42:03.258Z,15.30
2022-11-30T08:43:03.236Z,15.20
2022-11-30T08:44:03.242Z,14.50
2022-11-30T08:45:03.560Z,14.80
2022-11-30T08:46:08.401Z,14.50
2022-11-30T08:47:04.255Z,14.50
2022-11-30T08:48:03.493Z,14.40
2022-11-30T08:49:20.268Z,14.40
2022-11-30T08:50:04.160Z,13.70
2022-11-30T08:51:03.157Z,14.20
2022-11-30T08:52:19.012Z,13.10
2022-11-30T08:53:06.525Z,14.30
2022-11-30T08:54:03.099Z,13.10
2022-11-30T08:55:03.149Z,14.00
2022-11-30T08:56:03.101Z,13.80
2022-11-30T08:57:03.161Z,13.10
2022-11-30T08:58:03.076Z,14.00
2022-11-30T08:59:03.100Z,13.40
2022-11-30T09:00:03.065Z,14.60
2022-11-30T09:01:03.030Z,13.70
2022-11-30T09:02:03.008Z,11.90
2022-11-30T09:03:03.056Z,13.80
2022-11-30T09:04:02.993Z,14.20
2022-11-30T09:05:03.001Z,14.50
2022-11-30T09:06:02.993Z,13.70
2022-11-30T09:07:03.930Z,14.90
2022-11-30T09:08:03.037Z,14.10
2022-11-30T09:09:02.947Z,15.40
2022-11-30T09:10:02.946Z,11.30
2022-11-30T09:11:02.932Z,12.00
2022-11-30T09:12:02.927Z,10.60
2022-11-30T09:13:02.940Z,11.10
2022-11-30T09:14:02.921Z,11.30
2022-11-30T09:15:03.013Z,12.80
2022-11-30T09:16:02.961Z,14.30
2022-11-30T09:17:02.854Z,13.80
2022-11-30T09:18:03.425Z,12.60
2022-11-30T09:19:02.850Z,13.70
2022-11-30T09:20:02.819Z,14.00
2022-11-30T09:21:02.815Z,13.50
2022-11-30T09:22:02.842Z,13.00
2022-11-30T09:23:02.819Z,13.80
2022-11-30T09:24:02.790Z,13.00
2022-11-30T09:25:02.834Z,13.30
2022-11-30T09:26:02.761Z,13.50
2022-11-30T09:27:02.772Z,13.00
2022-11-30T09:28:02.759Z,12.80
2022-11-30T09:29:02.776Z,13.20
2022-11-30T09:30:02.711Z,12.90
2022-11-30T09:31:02.821Z,13.00
2022-11-30T09:32:02.681Z,11.90
2022-11-30T09:33:02.708Z,12.00
2022-11-30T09:34:02.674Z,12.30
2022-11-30T09:35:02.675Z,12.40
2022-11-30T09:36:02.660Z,11.70
2022-11-30T09:37:03.253Z,12.80
2022-11-30T09:38:02.678Z,12.00
2022-11-30T09:39:02.765Z,11.50
2022-11-30T09:40:03.403Z,12.00
2022-11-30T09:41:02.704Z,11.60
2022-11-30T09:42:02.618Z,13.00
2022-11-30T09:43:02.939Z,12.30
2022-11-30T09:44:02.568Z,11.40
2022-11-30T09:45:02.557Z,10.20
2022-11-30T09:46:02.568Z,11.10
2022-11-30T09:47:02.560Z,11.10
2022-11-30T09:48:02.534Z,9.80
2022-11-30T09:49:03.432Z,8.80
2022-11-30T09:50:02.491Z,10.10
2022-11-30T09:51:02.548Z,9.70
2022-11-30T09:52:02.485Z,10.10
2022-11-30T09:53:02.459Z,9.10
2022-11-30T09:54:02.532Z,10.00
2022-11-30T09:55:02.431Z,10.50
2022-11-30T09:56:02.466Z,12.00
2022-11-30T09:57:02.430Z,11.20
2022-11-30T09:58:02.440Z,10.70
2022-11-30T09:59:02.391Z,12.30
2022-11-30T10:00:02.380Z,11.70
2022-11-30T10:01:06.713Z,9.90
2022-11-30T10:02:03.446Z,9.80
2022-11-30T10:03:02.581Z,10.50
2022-11-30T10:04:02.349Z,10.90
2022-11-30T10:05:02.325Z,10.70
2022-11-30T10:06:02.375Z,10.90
2022-11-30T10:07:02.328Z,10.50
2022-11-30T10:08:02.450Z,9.50
2022-11-30T10:09:02.349Z,10.10
2022-11-30T10:10:31.074Z,11.20
2022-11-30T10:11:03.355Z,9.90
2022-11-30T10:12:02.388Z,10.00
2022-11-30T10:13:02.246Z,10.80
2022-11-30T10:14:02.226Z,10.60
2022-11-30T10:15:02.249Z,10.60
2022-11-30T10:16:02.377Z,9.90
2022-11-30T10:17:02.201Z,10.10
2022-11-30T10:18:02.184Z,10.80
2022-11-30T10:19:02.191Z,10.80
2022-11-30T10:20:02.193Z,11.00
2022-11-30T10:21:02.161Z,8.80
2022-11-30T10:22:02.162Z,10.70
2022-11-30T10:23:02.138Z,10.10
2022-11-30T10:24:02.163Z,9.90
2022-11-30T10:25:05.918Z,10.10
2022-11-30T10:26:03.161Z,11.80
2022-11-30T10:27:02.100Z,10.60
2022-11-30T10:28:18.175Z,11.30
2022-11-30T10:29:03.071Z,10.10
2022-11-30T10:30:02.077Z,10.70
2022-11-30T10:31:02.143Z,11.10
2022-11-30T10:32:02.064Z,10.20
2022-11-30T10:33:02.077Z,10.10
2022-11-30T10:34:02.057Z,10.20
2022-11-30T10:35:02.016Z,11.70
2022-11-30T10:36:01.992Z,11.10
2022-11-30T10:37:01.985Z,10.40
2022-11-30T10:38:02.023Z,11.30
2022-11-30T10:39:01.976Z,11.40
2022-11-30T10:40:01.961Z,11.00
2022-11-30T10:41:01.951Z,10.30
2022-11-30T10:42:01.956Z,11.40
2022-11-30T10:43:01.957Z,13.90
2022-11-30T10:44:02.012Z,13.40
2022-11-30T10:45:01.904Z,13.10
2022-11-30T10:46:01.950Z,12.70
2022-11-30T10:47:02.001Z,12.70
2022-11-30T10:48:01.895Z,13.50
2022-11-30T10:49:01.870Z,13.20
2022-11-30T10:50:01.929Z,13.50
2022-11-30T10:51:01.818Z,13.10
2022-11-30T10:52:01.820Z,13.70
2022-11-30T10:53:01.834Z,13.10
2022-11-30T10:54:01.913Z,13.60
2022-11-30T10:55:04.895Z,11.60
2022-11-30T10:56:01.770Z,10.50
2022-11-30T10:57:01.814Z,11.70
2022-11-30T10:58:01.807Z,10.90
2022-11-30T10:59:01.774Z,11.20
2022-11-30T11:00:01.867Z,12.40
2022-11-30T11:01:01.744Z,13.10
2022-11-30T11:02:01.791Z,12.10
2022-11-30T11:03:01.764Z,13.60
2022-11-30T11:04:01.800Z,12.90
2022-11-30T11:05:01.669Z,13.10
2022-11-30T11:06:01.664Z,14.20
2022-11-30T11:07:01.724Z,14.00
2022-11-30T11:08:06.782Z,13.70
2022-11-30T11:09:02.639Z,14.00
2022-11-30T11:10:01.636Z,13.00
2022-11-30T11:11:01.663Z,14.00
2022-11-30T11:12:01.618Z,15.00
2022-11-30T11:13:01.588Z,12.80
2022-11-30T11:14:01.624Z,13.70
2022-11-30T11:15:01.569Z,14.90
2022-11-30T11:16:01.710Z,10.30
2022-11-30T11:17:01.568Z,12.00
2022-11-30T11:18:01.564Z,12.50
2022-11-30T11:19:01.604Z,12.10
2022-11-30T11:20:01.543Z,11.30
2022-11-30T11:21:05.962Z,13.10
2022-11-30T11:22:02.501Z,13.90
2022-11-30T11:23:01.521Z,13.60
2022-11-30T11:24:01.471Z,13.30
2022-11-30T11:25:01.464Z,14.00
2022-11-30T11:26:01.474Z,14.50
2022-11-30T11:27:01.476Z,12.90
2022-11-30T11:28:01.527Z,13.40
2022-11-30T11:29:01.430Z,14.60
2022-11-30T11:30:01.450Z,14.90
2022-11-30T11:31:01.494Z,12.90
2022-11-30T11:32:01.396Z,12.50
2022-11-30T11:33:01.386Z,11.10
2022-11-30T11:34:01.465Z,11.40
2022-11-30T11:35:01.350Z,10.70
2022-11-30T11:36:01.357Z,11.10
2022-11-30T11:37:01.948Z,10.90
2022-11-30T11:38:01.322Z,12.10
2022-11-30T11:39:01.409Z,13.80
2022-11-30T11:40:01.319Z,14.40
2022-11-30T11:41:01.424Z,13.70
2022-11-30T11:42:01.500Z,15.10
2022-11-30T11:43:01.288Z,14.20
2022-11-30T11:44:01.323Z,15.40
2022-11-30T11:45:01.267Z,16.00
2022-11-30T11:46:01.392Z,16.00
2022-11-30T11:47:01.467Z,15.50
2022-11-30T11:48:01.232Z,15.70
2022-11-30T11:49:01.209Z,13.80
2022-11-30T11:50:01.197Z,13.10
2022-11-30T11:51:08.757Z,14.40
2022-11-30T11:52:02.995Z,13.30
2022-11-30T11:53:01.161Z,12.60
2022-11-30T11:54:01.174Z,12.70
2022-11-30T11:55:01.148Z,15.50
2022-11-30T11:56:01.291Z,15.00
2022-11-30T11:57:01.104Z,16.20
2022-11-30T11:58:01.121Z,16.90
2022-11-30T11:59:01.125Z,16.20
2022-11-30T12:00:01.093Z,16.20
2022-11-30T12:01:17.211Z,15.20
2022-11-30T12:02:02.983Z,14.90
2022-11-30T12:03:01.117Z,14.00
2022-11-30T12:04:01.203Z,14.10
2022-11-30T12:05:01.058Z,12.10
2022-11-30T12:06:01.127Z,16.10
2022-11-30T12:07:01.017Z,15.60
2022-11-30T12:08:00.999Z,16.30
2022-11-30T12:09:01.006Z,17.60
2022-11-30T12:10:00.996Z,16.00
2022-11-30T12:11:00.972Z,16.60
2022-11-30T12:12:00.954Z,16.60
2022-11-30T12:13:00.964Z,16.20
2022-11-30T12:14:00.944Z,14.80
2022-11-30T12:15:00.956Z,13.70
2022-11-30T12:16:00.947Z,14.60
2022-11-30T12:17:00.899Z,14.50
2022-11-30T12:18:01.015Z,14.30
2022-11-30T12:19:00.895Z,16.00
2022-11-30T12:20:00.856Z,17.90
2022-11-30T12:21:00.944Z,15.80
2022-11-30T12:22:00.918Z,17.10
2022-11-30T12:23:00.847Z,17.00
2022-11-30T12:24:00.884Z,16.60
2022-11-30T12:25:05.652Z,16.80
2022-11-30T12:26:02.397Z,14.40
2022-11-30T12:27:00.776Z,15.30
2022-11-30T12:28:00.818Z,15.10
2022-11-30T12:29:00.791Z,16.10
2022-11-30T12:30:00.754Z,14.10
2022-11-30T12:31:00.879Z,15.60
2022-11-30T12:32:00.760Z,14.90
2022-11-30T12:33:00.725Z,14.10
2022-11-30T12:34:00.728Z,14.70
2022-11-30T12:35:00.699Z,17.20
2022-11-30T12:36:00.711Z,18.20
2022-11-30T12:37:00.687Z,17.60
2022-11-30T12:38:00.675Z,17.10
2022-11-30T12:39:00.679Z,18.60
2022-11-30T12:40:00.710Z,17.30
2022-11-30T12:41:00.666Z,19.10
2022-11-30T12:42:00.650Z,14.90
2022-11-30T12:43:00.622Z,14.50
2022-11-30T12:44:00.695Z,14.10
2022-11-30T12:45:00.574Z,14.00
2022-11-30T12:46:00.590Z,14.90
2022-11-30T12:47:00.682Z,15.50
2022-11-30T12:48:00.556Z,16.80
2022-11-30T12:49:00.594Z,17.90
2022-11-30T12:50:00.620Z,18.40
2022-11-30T12:51:00.529Z,18.10
2022-11-30T12:52:00.536Z,19.00
2022-11-30T12:53:00.499Z,18.60
2022-11-30T12:54:00.546Z,19.50